createdAt,value
2019-05-15T00:00:45.099Z,1.5
2019-05-15T00:05:49.480Z,1.5
2019-05-15T00:10:50.208Z,1.4
2019-05-15T00:15:52.644Z,1.3
2019-05-15T00:20:55.001Z,1.3
2019-05-15T00:25:58.410Z,1.3
2019-05-15T00:30:59.874Z,1.3
2019-05-15T00:36:02.371Z,1.2
2019-05-15T00:41:04.818Z,1.2
2019-05-15T00:46:09.125Z,1.2
2019-05-15T00:51:09.947Z,1.2
2019-05-15T00:56:12.362Z,1.2
2019-05-15T01:01:14.604Z,1.1
2019-05-15T01:06:19.022Z,1.1
2019-05-15T01:11:19.540Z,1
2019-05-15T01:16:22.021Z,0.9
2019-05-15T01:21:24.572Z,0.9
2019-05-15T01:26:28.185Z,0.9
2019-05-15T01:31:29.779Z,0.9
2019-05-15T01:36:31.842Z,0.9
2019-05-15T01:41:34.323Z,1
2019-05-15T01:46:39.253Z,1
2019-05-15T01:51:39.346Z,1.1
2019-05-15T01:56:41.866Z,1.3
2019-05-15T02:01:44.249Z,1.4
2019-05-15T02:06:48.208Z,1.5
2019-05-15T02:11:49.078Z,1.6
2019-05-15T02:16:51.629Z,1.8
2019-05-15T02:21:54.042Z,1.9
2019-05-15T02:26:58.658Z,2
2019-05-15T02:31:59.464Z,2.1
2019-05-15T02:37:01.426Z,2.1
2019-05-15T02:42:03.935Z,2.2
2019-05-15T02:47:09.111Z,2.2
2019-05-15T02:52:09.733Z,2.2
2019-05-15T02:57:11.183Z,2.3
2019-05-15T03:02:13.700Z,2.3
2019-05-15T03:07:18.961Z,2.3
2019-05-15T03:12:19.527Z,2.3
2019-05-15T03:17:21.148Z,2.4
2019-05-15T03:22:23.570Z,2.4
2019-05-15T03:27:25.972Z,2.4
2019-05-15T03:32:40.652Z,2.5
2019-05-15T03:37:33.113Z,2.5
2019-05-15T03:42:33.326Z,2.6
2019-05-15T03:47:35.788Z,2.6
2019-05-15T03:52:39.384Z,2.6
2019-05-15T03:57:40.968Z,2.7
2019-05-15T04:02:43.173Z,2.8
2019-05-15T04:07:45.702Z,2.9
2019-05-15T04:12:49.213Z,3.1
2019-05-15T04:17:50.623Z,3.3
2019-05-15T04:22:53.090Z,3.4
2019-05-15T04:27:58.675Z,3.6
2019-05-15T04:32:59.361Z,3.7
2019-05-15T04:38:00.430Z,3.9
2019-05-15T04:43:02.942Z,4
2019-05-15T04:48:05.339Z,4.1
2019-05-15T04:53:10.466Z,4.3
2019-05-15T04:58:10.734Z,4.3
2019-05-15T05:03:12.781Z,4.4
2019-05-15T05:08:15.295Z,4.4
2019-05-15T05:13:19.728Z,4.5
2019-05-15T05:18:20.212Z,4.5
2019-05-15T05:23:22.642Z,4.6
2019-05-15T05:28:25.089Z,4.7
2019-05-15T05:33:28.598Z,4.9
2019-05-15T05:38:30.279Z,5.2
2019-05-15T05:43:32.483Z,5.4
2019-05-15T05:48:34.878Z,5.8
2019-05-15T05:53:38.273Z,5.9
2019-05-15T05:58:39.845Z,6.2
2019-05-15T06:03:42.524Z,6.3
2019-05-15T06:08:44.859Z,6.4
2019-05-15T06:13:51.753Z,6.5
2019-05-15T06:18:49.672Z,6.5
2019-05-15T06:23:55.022Z,6.6
2019-05-15T06:28:54.652Z,6.5
2019-05-15T06:33:58.036Z,6.5
2019-05-15T06:38:59.549Z,6.5
2019-05-15T06:44:02.031Z,6.6
2019-05-15T06:49:04.422Z,6.7
2019-05-15T06:59:09.497Z,6.9
2019-05-15T07:04:12.205Z,7
2019-05-15T07:09:14.215Z,7.1
2019-05-15T07:14:18.064Z,7.3
2019-05-15T07:19:19.309Z,7.5
2019-05-15T07:24:21.713Z,7.7
2019-05-15T07:29:24.103Z,8
2019-05-15T07:34:28.301Z,8.3
2019-05-15T07:39:29.038Z,8.7
2019-05-15T07:44:31.545Z,9.1
2019-05-15T07:49:33.949Z,9.2
2019-05-15T07:54:38.285Z,9.3
2019-05-15T07:59:38.837Z,9.4
2019-05-15T08:04:41.377Z,9.5
2019-05-15T08:09:43.892Z,9.8
2019-05-15T08:14:48.141Z,10.1
2019-05-15T08:19:48.780Z,10.4
2019-05-15T08:24:51.337Z,10.8
2019-05-15T08:29:53.622Z,11.4
2019-05-15T08:34:56.039Z,11.7
2019-05-15T08:45:01.099Z,12.3
2019-05-15T08:50:03.379Z,12.5
2019-05-15T08:55:08.330Z,12.6
2019-05-15T09:00:09.619Z,12.5
2019-05-15T09:05:10.901Z,12.3
2019-05-15T09:10:18.338Z,12.5
2019-05-15T09:15:18.286Z,12.8
2019-05-15T09:20:19.379Z,12.8
2019-05-15T09:25:20.606Z,12.8
2019-05-15T09:30:23.244Z,12.7
2019-05-15T09:35:27.698Z,12.4
2019-05-15T09:40:43.042Z,12.2
2019-05-15T09:45:30.482Z,11.9
2019-05-15T09:50:33.119Z,11.5
2019-05-15T09:55:38.123Z,11.4
2019-05-15T10:00:38.539Z,11.4
2019-05-15T10:05:40.445Z,11.6
2019-05-15T10:10:48.706Z,11.6
2019-05-15T10:15:48.253Z,11.3
2019-05-15T10:20:47.761Z,11
2019-05-15T10:25:50.057Z,10.7
2019-05-15T10:30:52.510Z,10.4
2019-05-15T10:35:54.980Z,10.2
2019-05-15T10:41:08.379Z,10.1
2019-05-15T10:46:00.202Z,10.1
2019-05-15T10:51:07.023Z,10
2019-05-15T10:56:04.852Z,9.7
2019-05-15T11:01:10.947Z,9.5
2019-05-15T11:06:09.771Z,9.3
2019-05-15T11:11:12.201Z,9.1
2019-05-15T11:16:14.871Z,8.8
2019-05-15T11:21:18.961Z,8.6
2019-05-15T11:26:19.652Z,8.5
2019-05-15T11:31:24.746Z,8.4
2019-05-15T11:36:24.600Z,8.5
2019-05-15T11:41:30.744Z,8.5
2019-05-15T11:46:29.474Z,8.5
2019-05-15T11:51:31.860Z,8.5
2019-05-15T11:56:34.340Z,8.5
2019-05-15T12:01:38.242Z,8.4
2019-05-15T12:06:39.199Z,8.4
2019-05-15T12:11:41.697Z,8.3
2019-05-15T12:17:00.862Z,8.2
2019-05-15T12:21:48.811Z,8.3
2019-05-15T12:26:49.106Z,8.3
2019-05-15T12:31:51.555Z,8.3
2019-05-15T12:36:57.862Z,8.2
2019-05-15T14:02:39.677Z,8.1
2019-05-15T14:07:48.548Z,8.1
2019-05-15T14:12:41.312Z,8.1
2019-05-15T14:17:43.092Z,8
2019-05-15T14:22:47.885Z,8
2019-05-15T14:27:48.587Z,7.9
2019-05-15T14:32:50.528Z,7.9
2019-05-15T14:38:03.359Z,7.9
2019-05-15T14:42:55.502Z,7.9
2019-05-15T14:47:58.220Z,7.9
2019-05-15T14:53:00.422Z,7.9
2019-05-15T14:58:02.769Z,8
2019-05-15T15:03:05.264Z,7.9
2019-05-15T15:08:18.198Z,7.8
2019-05-15T15:13:10.147Z,7.8
2019-05-15T15:18:12.794Z,7.8
2019-05-15T15:23:15.169Z,7.9
2019-05-15T15:28:18.819Z,7.9
2019-05-15T15:33:20.172Z,8
2019-05-15T15:38:35.276Z,7.9
2019-05-15T15:43:25.064Z,7.9
2019-05-15T15:48:28.689Z,7.8
2019-05-15T15:53:29.805Z,7.8
2019-05-15T15:58:32.314Z,7.6
2019-05-15T16:03:34.802Z,7.6
2019-05-15T16:08:51.045Z,7.5
2019-05-15T16:13:39.942Z,7.4
2019-05-15T16:23:44.582Z,7.3
2019-05-15T16:28:48.900Z,7.3
2019-05-15T16:33:49.501Z,7.3
2019-05-15T16:39:03.872Z,7.3
2019-05-15T16:43:54.444Z,7.3
2019-05-15T16:48:58.335Z,7.2
2019-05-15T16:53:59.338Z,7.2
2019-05-15T16:59:01.869Z,7.2
2019-05-15T17:04:04.285Z,7.1
2019-05-15T17:09:18.237Z,7.1
2019-05-15T17:14:09.214Z,7.1
2019-05-15T17:19:11.650Z,7
2019-05-15T17:24:14.174Z,7
2019-05-15T17:29:18.483Z,6.9
2019-05-15T17:34:18.984Z,6.9
2019-05-15T17:39:33.606Z,6.9
2019-05-15T17:44:23.967Z,6.8
2019-05-15T17:49:28.005Z,6.8
2019-05-15T17:54:28.900Z,6.8
2019-05-15T17:59:31.359Z,6.7
2019-05-15T18:04:33.794Z,6.8
2019-05-15T18:09:48.233Z,6.8
2019-05-15T18:14:38.755Z,6.8
2019-05-15T18:19:41.160Z,6.8
2019-05-15T18:24:45.312Z,6.7
2019-05-15T18:29:48.017Z,6.7
2019-05-15T18:34:48.861Z,6.8
2019-05-15T18:40:01.126Z,6.8
2019-05-15T18:44:53.820Z,6.8
2019-05-15T18:50:04.908Z,6.8
2019-05-15T18:54:58.824Z,6.8
2019-05-15T19:00:01.123Z,6.7
2019-05-15T19:05:03.478Z,6.7
2019-05-15T19:10:07.761Z,6.6
2019-05-15T19:15:09.164Z,6.5
2019-05-15T19:20:10.606Z,6.5
2019-05-15T19:25:13.811Z,6.4
2019-05-15T19:30:15.626Z,6.4
2019-05-15T19:35:18.487Z,6.4
2019-05-15T19:40:20.516Z,6.4
2019-05-15T19:45:23.023Z,6.4
2019-05-15T19:50:25.480Z,6.3
2019-05-15T19:55:27.821Z,6.3
2019-05-15T20:00:30.270Z,6.3
2019-05-15T20:05:32.688Z,6.3
2019-05-15T20:15:38.009Z,6.2
2019-05-15T20:20:40.136Z,6.3
2019-05-15T20:25:42.582Z,6.3
2019-05-15T20:30:44.991Z,6.2
2019-05-15T20:35:47.956Z,6.1
2019-05-15T20:40:49.968Z,6.1
2019-05-15T20:45:52.363Z,6.2
2019-05-15T20:50:54.875Z,6.1
2019-05-15T20:55:58.836Z,6.1
2019-05-15T21:00:59.745Z,6.1
2019-05-15T21:06:02.186Z,6.1
2019-05-15T21:11:04.646Z,6
2019-05-15T21:16:08.243Z,6
2019-05-15T21:26:12.058Z,6
2019-05-15T21:31:14.470Z,6.1
2019-05-15T21:36:19.239Z,6.1
2019-05-15T21:41:19.386Z,6.2
2019-05-15T21:46:21.950Z,6.2
2019-05-15T21:51:24.317Z,6.1
2019-05-15T21:56:27.948Z,6.1
2019-05-15T22:01:29.421Z,6.1
2019-05-15T22:06:31.642Z,6.1
2019-05-15T22:11:34.214Z,6.2
2019-05-15T22:16:36.740Z,6.2
2019-05-15T22:21:40.672Z,6.2
2019-05-15T22:26:41.524Z,6.2
2019-05-15T22:31:44.038Z,6.2
2019-05-15T22:36:48.801Z,6.3
2019-05-15T22:41:48.921Z,6.3
2019-05-15T22:46:51.336Z,6.3
2019-05-15T22:51:53.772Z,6.3
2019-05-15T22:56:57.650Z,6.3
2019-05-15T23:01:58.699Z,6.3
2019-05-15T23:07:01.173Z,6.3
2019-05-15T23:12:03.680Z,6.3
2019-05-15T23:17:08.125Z,6.3
2019-05-15T23:22:08.643Z,6.4
2019-05-15T23:27:11.009Z,6.4
2019-05-15T23:32:13.540Z,6.4
2019-05-15T23:37:15.909Z,6.4
2019-05-15T23:42:18.617Z,6.4
2019-05-15T23:47:20.831Z,6.4
2019-05-15T23:52:23.295Z,6.4
2019-05-15T23:57:28.495Z,6.4
